createdAt,value
2017-08-10T00:00:00.384Z,0
2017-08-10T00:01:02.824Z,0
2017-08-10T00:02:05.265Z,0
2017-08-10T00:03:07.723Z,0
2017-08-10T00:04:10.506Z,0
2017-08-10T00:05:12.968Z,0
2017-08-10T00:06:15.452Z,0
2017-08-10T00:07:18.263Z,0
2017-08-10T00:08:20.714Z,0
2017-08-10T00:09:23.171Z,0
2017-08-10T00:10:25.963Z,0
2017-08-10T00:11:28.421Z,0
2017-08-10T00:12:30.891Z,0
2017-08-10T00:13:33.684Z,0
2017-08-10T00:14:36.125Z,0
2017-08-10T00:15:38.570Z,0
2017-08-10T00:16:41.045Z,0
2017-08-10T00:17:43.493Z,0
2017-08-10T00:18:45.933Z,0
2017-08-10T00:19:48.718Z,0
2017-08-10T00:20:51.507Z,0
2017-08-10T00:21:54.318Z,0
2017-08-10T00:22:57.106Z,0
2017-08-10T00:23:59.884Z,0
2017-08-10T00:25:02.661Z,0
2017-08-10T00:26:05.111Z,0
2017-08-10T00:27:07.562Z,0
2017-08-10T00:28:10.020Z,0
2017-08-10T00:29:12.478Z,0
2017-08-10T00:30:15.613Z,0
2017-08-10T00:31:18.393Z,0
2017-08-10T00:32:20.849Z,0
2017-08-10T00:33:23.291Z,0
2017-08-10T00:34:25.749Z,0
2017-08-10T00:35:28.187Z,0
2017-08-10T00:36:30.641Z,0
2017-08-10T00:37:33.437Z,0
2017-08-10T00:38:36.265Z,0
2017-08-10T00:39:39.055Z,0
2017-08-10T00:40:41.494Z,0
2017-08-10T00:41:44.293Z,0
2017-08-10T00:42:46.741Z,0
2017-08-10T00:43:49.875Z,0
2017-08-10T00:44:52.692Z,0
2017-08-10T00:45:55.123Z,0
2017-08-10T00:46:57.583Z,0
2017-08-10T00:48:00.041Z,0
2017-08-10T00:49:03.176Z,0
2017-08-10T00:50:05.616Z,0
2017-08-10T00:51:08.058Z,0
2017-08-10T00:52:10.514Z,0
2017-08-10T00:53:12.953Z,0
2017-08-10T00:54:15.754Z,0
2017-08-10T00:55:18.204Z,0
2017-08-10T00:56:20.659Z,0
2017-08-10T00:57:23.444Z,0
2017-08-10T00:58:26.230Z,0
2017-08-10T00:59:29.013Z,0
2017-08-10T01:00:31.808Z,0
2017-08-10T01:01:34.929Z,0
2017-08-10T01:02:37.373Z,0
2017-08-10T01:03:40.157Z,0
2017-08-10T01:04:42.957Z,0
2017-08-10T01:05:45.768Z,0
2017-08-10T01:06:48.616Z,0
2017-08-10T01:07:51.068Z,0
2017-08-10T01:08:53.519Z,0
2017-08-10T01:09:56.312Z,0
2017-08-10T01:10:59.100Z,0
2017-08-10T01:12:01.534Z,0
2017-08-10T01:13:04.319Z,0
2017-08-10T01:14:07.796Z,0
2017-08-10T01:15:10.254Z,0
2017-08-10T01:16:13.406Z,0
2017-08-10T01:17:16.200Z,0
2017-08-10T01:18:18.645Z,0
2017-08-10T01:19:21.102Z,0
2017-08-10T01:20:23.549Z,0
2017-08-10T01:21:26.013Z,0
2017-08-10T01:22:28.472Z,0
2017-08-10T01:23:30.925Z,0
2017-08-10T01:24:33.709Z,0
2017-08-10T01:25:36.154Z,0
2017-08-10T01:26:38.952Z,0
2017-08-10T01:27:41.394Z,0
2017-08-10T01:28:43.852Z,0
2017-08-10T01:29:46.301Z,0
2017-08-10T01:30:49.426Z,0
2017-08-10T01:31:51.929Z,0
2017-08-10T01:32:54.715Z,0
2017-08-10T01:33:57.155Z,0
2017-08-10T01:34:59.941Z,0
2017-08-10T01:36:02.410Z,0
2017-08-10T01:37:05.220Z,0
2017-08-10T01:38:07.673Z,0
2017-08-10T01:39:10.454Z,0
2017-08-10T01:40:12.908Z,0
2017-08-10T01:41:15.375Z,0
2017-08-10T01:42:17.823Z,0
2017-08-10T01:43:20.255Z,0
2017-08-10T01:44:22.733Z,0
2017-08-10T01:45:25.554Z,0
2017-08-10T01:46:27.991Z,0
2017-08-10T01:47:30.776Z,0
2017-08-10T01:48:34.261Z,0
2017-08-10T01:49:37.075Z,0
2017-08-10T01:50:39.536Z,0
2017-08-10T01:51:41.993Z,0
2017-08-10T01:52:44.775Z,0
2017-08-10T01:53:47.222Z,0
2017-08-10T01:54:50.014Z,0
2017-08-10T01:55:52.472Z,0
2017-08-10T01:56:54.909Z,0
2017-08-10T01:57:57.368Z,0
2017-08-10T01:58:59.809Z,0
2017-08-10T02:00:02.631Z,0
2017-08-10T02:01:05.078Z,0
2017-08-10T02:02:07.541Z,0
2017-08-10T02:03:10.324Z,0
2017-08-10T02:04:13.119Z,0
2017-08-10T02:05:15.563Z,0
2017-08-10T02:06:18.012Z,0
2017-08-10T02:07:20.440Z,0
2017-08-10T02:08:22.901Z,0
2017-08-10T02:09:25.701Z,0
2017-08-10T02:10:28.152Z,0
2017-08-10T02:11:30.596Z,0
2017-08-10T02:12:33.385Z,0
2017-08-10T02:13:35.834Z,0
2017-08-10T02:14:38.284Z,0
2017-08-10T02:15:41.077Z,0
2017-08-10T02:16:43.528Z,0
2017-08-10T02:17:46.308Z,0
2017-08-10T02:18:48.801Z,0
2017-08-10T02:19:51.949Z,0
2017-08-10T02:20:54.393Z,0
2017-08-10T02:21:56.852Z,0
2017-08-10T02:22:59.293Z,0
2017-08-10T02:24:01.746Z,0
2017-08-10T02:25:04.536Z,0
2017-08-10T02:26:07.644Z,0
2017-08-10T02:27:10.436Z,0
2017-08-10T02:28:12.895Z,0
2017-08-10T02:29:15.340Z,0
2017-08-10T02:30:17.791Z,0
2017-08-10T02:31:20.248Z,0
2017-08-10T02:32:23.366Z,0
2017-08-10T02:33:25.837Z,0
2017-08-10T02:34:28.620Z,0
2017-08-10T02:35:31.084Z,0
2017-08-10T02:36:33.865Z,0
2017-08-10T02:37:36.679Z,0
2017-08-10T02:38:39.472Z,0
2017-08-10T02:39:42.257Z,0
2017-08-10T02:40:44.694Z,0
2017-08-10T02:41:47.144Z,0
2017-08-10T02:42:49.937Z,0
2017-08-10T02:43:52.725Z,0
2017-08-10T02:44:55.170Z,0
2017-08-10T02:45:58.311Z,0
2017-08-10T02:47:01.098Z,0
2017-08-10T02:48:03.922Z,0
2017-08-10T02:49:06.714Z,0
2017-08-10T02:50:09.504Z,0
2017-08-10T02:51:12.623Z,0
2017-08-10T02:52:15.083Z,0
2017-08-10T02:53:18.221Z,0
2017-08-10T02:54:21.026Z,0
2017-08-10T02:55:23.814Z,0
2017-08-10T02:56:26.619Z,0
2017-08-10T02:57:29.413Z,0
2017-08-10T02:58:31.867Z,0
2017-08-10T02:59:34.335Z,0
2017-08-10T03:00:36.793Z,0
2017-08-10T03:01:39.247Z,0
2017-08-10T03:02:42.036Z,0
2017-08-10T03:03:45.154Z,0
2017-08-10T03:04:48.643Z,0
2017-08-10T03:05:51.441Z,0
2017-08-10T03:06:53.910Z,4
2017-08-10T03:07:56.692Z,4
2017-08-10T03:08:59.474Z,4
2017-08-10T03:10:02.632Z,4
2017-08-10T03:11:05.433Z,4
2017-08-10T03:12:08.233Z,4
2017-08-10T03:13:10.703Z,4
2017-08-10T03:14:13.137Z,8
2017-08-10T03:15:15.932Z,8
2017-08-10T03:16:18.740Z,8
2017-08-10T03:17:21.186Z,8
2017-08-10T03:18:23.636Z,12
2017-08-10T03:19:26.438Z,12
2017-08-10T03:20:29.215Z,16
2017-08-10T03:21:31.652Z,16
2017-08-10T03:22:34.446Z,20
2017-08-10T03:23:37.581Z,20
2017-08-10T03:24:40.086Z,24
2017-08-10T03:25:43.224Z,32
2017-08-10T03:26:46.689Z,36
2017-08-10T03:27:49.137Z,40
2017-08-10T03:28:51.939Z,44
2017-08-10T03:29:54.379Z,56
2017-08-10T03:30:57.840Z,60
2017-08-10T03:32:00.656Z,64
2017-08-10T03:33:03.451Z,72
2017-08-10T03:34:06.591Z,80
2017-08-10T03:35:09.033Z,92
2017-08-10T03:36:11.496Z,100
2017-08-10T03:37:13.947Z,108
2017-08-10T03:38:16.728Z,120
2017-08-10T03:39:20.199Z,136
2017-08-10T03:40:22.657Z,148
2017-08-10T03:41:25.462Z,160
2017-08-10T03:42:27.909Z,176
2017-08-10T03:43:31.049Z,188
2017-08-10T03:44:33.498Z,200
2017-08-10T03:45:35.935Z,220
2017-08-10T03:46:38.380Z,236
2017-08-10T03:47:41.195Z,252
2017-08-10T03:48:43.631Z,272
2017-08-10T03:49:46.433Z,296
2017-08-10T03:50:49.580Z,324
2017-08-10T03:51:52.034Z,368
2017-08-10T03:52:54.477Z,428
2017-08-10T03:53:56.941Z,480
2017-08-10T03:54:59.384Z,512
2017-08-10T03:56:01.832Z,536
2017-08-10T03:57:04.278Z,564
2017-08-10T03:58:07.073Z,604
2017-08-10T03:59:09.866Z,656
2017-08-10T04:00:12.648Z,716
2017-08-10T04:01:15.444Z,768
2017-08-10T04:02:17.885Z,824
2017-08-10T04:03:20.671Z,872
2017-08-10T04:04:23.131Z,916
2017-08-10T04:05:25.916Z,956
2017-08-10T04:06:28.712Z,996
2017-08-10T04:07:31.160Z,1032
2017-08-10T04:08:33.603Z,1072
2017-08-10T04:09:36.054Z,1140
2017-08-10T04:10:38.510Z,1236
2017-08-10T04:11:41.630Z,1344
2017-08-10T04:12:44.084Z,1428
2017-08-10T04:13:46.552Z,1492
2017-08-10T04:14:48.990Z,1536
2017-08-10T04:15:51.444Z,1592
2017-08-10T04:16:54.228Z,1668
2017-08-10T04:17:57.356Z,1772
2017-08-10T04:18:59.811Z,1888
2017-08-10T04:20:02.610Z,1992
2017-08-10T04:21:05.757Z,2060
2017-08-10T04:22:08.210Z,2132
2017-08-10T04:23:10.642Z,2208
2017-08-10T04:24:13.095Z,2296
2017-08-10T04:25:16.246Z,2428
2017-08-10T04:26:18.750Z,2552
2017-08-10T04:27:21.220Z,2688
2017-08-10T04:28:23.666Z,2844
2017-08-10T04:29:26.106Z,3004
2017-08-10T04:30:28.570Z,3192
2017-08-10T04:31:31.010Z,3340
2017-08-10T04:32:33.801Z,3468
2017-08-10T04:33:36.580Z,3612
2017-08-10T04:34:39.365Z,3756
2017-08-10T04:35:42.160Z,3904
2017-08-10T04:36:44.956Z,4048
2017-08-10T04:37:47.394Z,4156
2017-08-10T04:38:49.848Z,4240
2017-08-10T04:39:52.292Z,4292
2017-08-10T04:40:55.098Z,4372
2017-08-10T04:41:57.562Z,4524
2017-08-10T04:43:00.342Z,4660
2017-08-10T04:44:02.780Z,4748
2017-08-10T04:45:05.586Z,4792
2017-08-10T04:46:08.715Z,4788
2017-08-10T04:47:11.518Z,4744
2017-08-10T04:48:13.956Z,4724
2017-08-10T04:49:16.763Z,4712
2017-08-10T04:50:19.550Z,4788
2017-08-10T04:51:21.996Z,4840
2017-08-10T04:52:24.449Z,4924
2017-08-10T04:53:26.904Z,4964
2017-08-10T04:54:29.362Z,5016
2017-08-10T04:55:32.164Z,5060
2017-08-10T04:56:34.614Z,5112
2017-08-10T04:57:37.412Z,5132
2017-08-10T04:58:40.211Z,5144
2017-08-10T04:59:42.662Z,5044
2017-08-10T05:00:45.121Z,4944
2017-08-10T05:01:47.932Z,4828
2017-08-10T05:02:50.382Z,4724
2017-08-10T05:03:52.829Z,4628
2017-08-10T05:04:55.972Z,4508
2017-08-10T05:05:58.420Z,4360
2017-08-10T05:07:01.203Z,4224
2017-08-10T05:08:03.657Z,4092
2017-08-10T05:09:06.436Z,3980
2017-08-10T05:10:08.907Z,3908
2017-08-10T05:11:11.369Z,3860
2017-08-10T05:12:14.505Z,3848
2017-08-10T05:13:16.966Z,3928
2017-08-10T05:14:19.760Z,4076
2017-08-10T05:15:22.207Z,4272
2017-08-10T05:16:25.008Z,4508
2017-08-10T05:17:27.460Z,4696
2017-08-10T05:18:29.929Z,4888
2017-08-10T05:19:32.448Z,4972
2017-08-10T05:20:35.247Z,5040
2017-08-10T05:21:37.724Z,5160
2017-08-10T05:22:40.180Z,5220
2017-08-10T05:23:42.631Z,5136
2017-08-10T05:24:45.080Z,5108
2017-08-10T05:25:48.219Z,5076
2017-08-10T05:26:50.666Z,5036
2017-08-10T05:27:53.141Z,5084
2017-08-10T05:28:55.586Z,5168
2017-08-10T05:29:58.052Z,5256
2017-08-10T05:31:00.838Z,5384
2017-08-10T05:32:03.282Z,5492
2017-08-10T05:33:06.075Z,5608
2017-08-10T05:34:08.530Z,5752
2017-08-10T05:35:10.991Z,5820
2017-08-10T05:36:13.794Z,5860
2017-08-10T05:37:16.907Z,5908
2017-08-10T05:38:19.361Z,5836
2017-08-10T05:39:21.805Z,5640
2017-08-10T05:40:24.624Z,5472
2017-08-10T05:41:27.092Z,5336
2017-08-10T05:42:29.570Z,5176
2017-08-10T05:43:32.060Z,5128
2017-08-10T05:44:34.509Z,5164
2017-08-10T05:45:37.975Z,5208
2017-08-10T05:46:40.434Z,5236
2017-08-10T05:47:42.911Z,5256
2017-08-10T05:48:45.369Z,5216
2017-08-10T05:49:48.166Z,5052
2017-08-10T05:50:50.948Z,5000
2017-08-10T05:51:53.408Z,5100
2017-08-10T05:52:56.202Z,5240
2017-08-10T05:53:58.986Z,5344
2017-08-10T05:55:01.437Z,5460
2017-08-10T05:56:04.927Z,5548
2017-08-10T05:57:07.367Z,5616
2017-08-10T05:58:10.176Z,5536
2017-08-10T05:59:12.974Z,5448
2017-08-10T06:00:15.416Z,5456
2017-08-10T06:01:18.554Z,5480
2017-08-10T06:02:21.010Z,5580
2017-08-10T06:03:23.777Z,5744
2017-08-10T06:04:26.571Z,5932
2017-08-10T06:05:29.354Z,6200
2017-08-10T06:06:32.487Z,6416
2017-08-10T06:07:34.939Z,6604
2017-08-10T06:08:37.373Z,6740
2017-08-10T06:09:40.157Z,6856
2017-08-10T06:10:42.960Z,6996
2017-08-10T06:11:45.399Z,7332
2017-08-10T06:12:47.860Z,7864
2017-08-10T06:13:50.313Z,8312
2017-08-10T06:14:52.755Z,8740
2017-08-10T06:15:55.221Z,8932
2017-08-10T06:16:58.015Z,9000
2017-08-10T06:18:00.455Z,8984
2017-08-10T06:19:02.934Z,8940
2017-08-10T06:20:05.398Z,9160
2017-08-10T06:21:07.864Z,9228
2017-08-10T06:22:10.309Z,9600
2017-08-10T06:23:12.752Z,9976
2017-08-10T06:24:15.567Z,10304
2017-08-10T06:25:18.010Z,10536
2017-08-10T06:26:20.471Z,10872
2017-08-10T06:27:23.262Z,11036
2017-08-10T06:28:25.721Z,11504
2017-08-10T06:29:28.209Z,11236
2017-08-10T06:30:30.675Z,11400
2017-08-10T06:31:33.133Z,11524
2017-08-10T06:32:35.922Z,11584
2017-08-10T06:33:39.054Z,11564
2017-08-10T06:34:41.509Z,11592
2017-08-10T06:35:44.344Z,11696
2017-08-10T06:36:46.782Z,11920
2017-08-10T06:37:49.240Z,12116
2017-08-10T06:38:52.399Z,12232
2017-08-10T06:39:54.857Z,12200
2017-08-10T06:40:57.314Z,12288
2017-08-10T06:42:00.442Z,12276
2017-08-10T06:43:03.233Z,12344
2017-08-10T06:44:06.035Z,12484
2017-08-10T06:45:08.832Z,12540
2017-08-10T06:46:11.271Z,12636
2017-08-10T06:47:14.404Z,12940
2017-08-10T06:48:16.865Z,12976
2017-08-10T06:49:19.326Z,13156
2017-08-10T06:50:21.822Z,13664
2017-08-10T06:51:24.285Z,14592
2017-08-10T06:52:26.749Z,15280
2017-08-10T06:53:29.194Z,15660
2017-08-10T06:54:31.986Z,15844
2017-08-10T06:55:34.442Z,15936
2017-08-10T06:56:36.926Z,15836
2017-08-10T06:57:39.372Z,15632
2017-08-10T06:58:42.161Z,15680
2017-08-10T06:59:44.603Z,15848
2017-08-10T07:00:47.073Z,16100
2017-08-10T07:01:49.525Z,16184
2017-08-10T07:02:52.326Z,15860
2017-08-10T07:03:55.455Z,15784
2017-08-10T07:04:57.916Z,15912
2017-08-10T07:06:00.368Z,16492
2017-08-10T07:07:02.830Z,16264
2017-08-10T07:08:06.295Z,15860
2017-08-10T07:09:08.740Z,15880
2017-08-10T07:10:11.766Z,15956
2017-08-10T07:11:20.077Z,16308
2017-08-10T07:12:31.156Z,17380
2017-08-10T07:13:41.478Z,18572
2017-08-10T07:14:51.269Z,19744
2017-08-10T07:16:01.401Z,19488
2017-08-10T07:17:12.403Z,18444
2017-08-10T07:18:22.601Z,17140
2017-08-10T07:19:33.727Z,15624
2017-08-10T07:20:42.956Z,14700
2017-08-10T07:21:53.580Z,13588
2017-08-10T07:23:04.452Z,12488
2017-08-10T07:24:14.922Z,12256
2017-08-10T07:25:26.688Z,12576
2017-08-10T07:26:36.858Z,12716
2017-08-10T07:27:48.970Z,12588
2017-08-10T07:28:59.074Z,13540
2017-08-10T07:30:09.607Z,14484
2017-08-10T07:31:21.394Z,15444
2017-08-10T07:32:32.628Z,16572
2017-08-10T07:33:44.724Z,17984
2017-08-10T07:34:55.958Z,18540
2017-08-10T07:36:05.604Z,19136
2017-08-10T07:37:13.515Z,19168
2017-08-10T07:38:23.972Z,19360
2017-08-10T07:39:33.829Z,19904
2017-08-10T07:40:45.000Z,20960
2017-08-10T07:41:48.719Z,21536
2017-08-10T07:42:52.625Z,21696
2017-08-10T07:43:56.095Z,21440
2017-08-10T07:45:01.435Z,21440
2017-08-10T07:46:04.932Z,21504
2017-08-10T07:47:09.692Z,21536
2017-08-10T07:48:12.355Z,21664
2017-08-10T07:49:15.432Z,21792
2017-08-10T07:50:18.086Z,21728
2017-08-10T07:51:21.442Z,21760
2017-08-10T07:52:24.101Z,21408
2017-08-10T07:53:26.562Z,21120
2017-08-10T07:54:29.038Z,21152
2017-08-10T07:55:31.842Z,21120
2017-08-10T07:56:34.658Z,20704
2017-08-10T07:57:37.113Z,20192
2017-08-10T07:58:39.980Z,19712
2017-08-10T07:59:42.528Z,18880
2017-08-10T08:00:45.055Z,18080
2017-08-10T08:01:48.440Z,17944
2017-08-10T08:02:50.900Z,18252
2017-08-10T08:03:53.360Z,18752
2017-08-10T08:04:56.172Z,19616
2017-08-10T08:05:58.979Z,20416
2017-08-10T08:07:01.452Z,20800
2017-08-10T08:08:04.248Z,21056
2017-08-10T08:09:07.076Z,21024
2017-08-10T08:10:09.539Z,21344
2017-08-10T08:11:11.992Z,21440
2017-08-10T08:12:14.459Z,21440
2017-08-10T08:13:16.927Z,21504
2017-08-10T08:14:19.401Z,21728
2017-08-10T08:15:21.889Z,22368
2017-08-10T08:16:24.343Z,22816
2017-08-10T08:17:26.802Z,23008
2017-08-10T08:18:29.600Z,23328
2017-08-10T08:19:32.064Z,23648
2017-08-10T08:20:34.522Z,23904
2017-08-10T08:21:36.990Z,23616
2017-08-10T08:22:39.452Z,23200
2017-08-10T08:23:42.247Z,22976
2017-08-10T08:24:45.048Z,22688
2017-08-10T08:25:48.160Z,22464
2017-08-10T08:26:50.624Z,21920
2017-08-10T08:27:53.430Z,21440
2017-08-10T08:28:55.875Z,21088
2017-08-10T08:29:58.672Z,20928
2017-08-10T08:31:01.127Z,20480
2017-08-10T08:32:03.918Z,19808
2017-08-10T08:33:06.717Z,18392
2017-08-10T08:34:09.177Z,17244
2017-08-10T08:35:11.622Z,16224
2017-08-10T08:36:14.100Z,15440
2017-08-10T08:37:16.890Z,15000
2017-08-10T08:38:19.390Z,14720
2017-08-10T08:39:22.190Z,14640
2017-08-10T08:40:25.334Z,14636
2017-08-10T08:41:27.813Z,14600
2017-08-10T08:42:31.311Z,14552
2017-08-10T08:43:33.779Z,14476
2017-08-10T08:44:36.248Z,14328
2017-08-10T08:45:39.058Z,14112
2017-08-10T08:46:41.531Z,13904
2017-08-10T08:47:44.003Z,13736
2017-08-10T08:48:46.463Z,13664
2017-08-10T08:49:49.266Z,13700
2017-08-10T08:50:51.726Z,13844
2017-08-10T08:51:54.192Z,14056
2017-08-10T08:52:56.656Z,14388
2017-08-10T08:53:59.109Z,14784
2017-08-10T08:55:01.935Z,15236
2017-08-10T08:56:05.070Z,15704
2017-08-10T08:57:07.543Z,16412
2017-08-10T08:58:10.360Z,15848
2017-08-10T08:59:13.164Z,15944
2017-08-10T09:00:15.626Z,16176
2017-08-10T09:01:18.089Z,16392
2017-08-10T09:02:20.553Z,16404
2017-08-10T09:03:23.362Z,16452
2017-08-10T09:04:26.161Z,16580
2017-08-10T09:05:28.699Z,16616
2017-08-10T09:06:31.506Z,16376
2017-08-10T09:07:34.310Z,15900
2017-08-10T09:08:36.749Z,15384
2017-08-10T09:09:39.205Z,14936
2017-08-10T09:10:41.682Z,14524
2017-08-10T09:11:44.497Z,14116
2017-08-10T09:12:46.954Z,13696
2017-08-10T09:13:49.421Z,13308
2017-08-10T09:14:51.891Z,12924
2017-08-10T09:15:54.715Z,12540
2017-08-10T09:16:57.192Z,12168
2017-08-10T09:17:59.642Z,11752
2017-08-10T09:19:02.103Z,11232
2017-08-10T09:20:04.920Z,10708
2017-08-10T09:21:07.810Z,10304
2017-08-10T09:22:10.288Z,10112
2017-08-10T09:23:12.750Z,10088
2017-08-10T09:24:15.565Z,10160
2017-08-10T09:25:19.035Z,10208
2017-08-10T09:26:21.840Z,10176
2017-08-10T09:27:24.293Z,10040
2017-08-10T09:28:26.755Z,9848
2017-08-10T09:29:29.211Z,9616
2017-08-10T09:30:31.662Z,9412
2017-08-10T09:31:34.454Z,9240
2017-08-10T09:32:36.926Z,9144
2017-08-10T09:33:39.385Z,9124
2017-08-10T09:34:41.836Z,9196
2017-08-10T09:35:44.293Z,9320
2017-08-10T09:36:46.738Z,9472
2017-08-10T09:37:49.538Z,9632
2017-08-10T09:38:52.013Z,9772
2017-08-10T09:39:54.478Z,9928
2017-08-10T09:40:57.280Z,10132
2017-08-10T09:41:59.757Z,10424
2017-08-10T09:43:02.893Z,10792
2017-08-10T09:44:05.373Z,11176
2017-08-10T09:45:08.513Z,11596
2017-08-10T09:46:10.969Z,11972
2017-08-10T09:47:13.764Z,12280
2017-08-10T09:48:17.250Z,12544
2017-08-10T09:49:19.705Z,12880
2017-08-10T09:50:22.152Z,13376
2017-08-10T09:51:24.632Z,14032
2017-08-10T09:52:27.119Z,15048
2017-08-10T09:53:29.916Z,16348
2017-08-10T09:54:32.374Z,18108
2017-08-10T09:55:34.831Z,20448
2017-08-10T09:56:37.281Z,23104
2017-08-10T09:57:39.767Z,26592
2017-08-10T09:58:42.216Z,32832
2017-08-10T09:59:44.685Z,37536
2017-08-10T10:00:47.157Z,41440
2017-08-10T10:01:50.634Z,41984
2017-08-10T10:02:53.429Z,46848
2017-08-10T10:03:55.905Z,45120
2017-08-10T10:04:58.392Z,48000
2017-08-10T10:06:01.187Z,51712
2017-08-10T10:07:04.000Z,55296
2017-08-10T10:08:06.448Z,63008
2017-08-10T10:09:08.920Z,70816
2017-08-10T10:10:11.374Z,52384
2017-08-10T10:11:14.189Z,93056
2017-08-10T10:12:17.274Z,70976
2017-08-10T10:13:20.434Z,51136
2017-08-10T10:14:23.561Z,46304
2017-08-10T10:15:26.032Z,49536
2017-08-10T10:16:28.520Z,49600
2017-08-10T10:17:31.687Z,35360
2017-08-10T10:18:34.491Z,34048
2017-08-10T10:19:36.980Z,29792
2017-08-10T10:20:39.453Z,27488
2017-08-10T10:21:42.259Z,24928
2017-08-10T10:22:45.050Z,22816
2017-08-10T10:23:47.504Z,21120
2017-08-10T10:24:49.978Z,20192
2017-08-10T10:25:52.441Z,19904
2017-08-10T10:26:54.887Z,19808
2017-08-10T10:27:57.691Z,19616
2017-08-10T10:29:00.178Z,19264
2017-08-10T10:30:02.978Z,19808
2017-08-10T10:31:06.139Z,20544
2017-08-10T10:32:08.936Z,20832
2017-08-10T10:33:11.404Z,20896
2017-08-10T10:34:13.890Z,20768
2017-08-10T10:35:16.353Z,21568
2017-08-10T10:36:18.820Z,22624
2017-08-10T10:37:21.285Z,23744
2017-08-10T10:38:24.084Z,25248
2017-08-10T10:39:26.560Z,26368
2017-08-10T10:40:29.356Z,27520
2017-08-10T10:41:31.802Z,29120
2017-08-10T10:42:34.610Z,29856
2017-08-10T10:43:37.405Z,30816
2017-08-10T10:44:39.863Z,32064
2017-08-10T10:45:42.330Z,34976
2017-08-10T10:46:45.131Z,41760
2017-08-10T10:47:47.645Z,66784
2017-08-10T10:48:50.463Z,58848
2017-08-10T10:49:53.591Z,47904
2017-08-10T10:50:56.393Z,52640
2017-08-10T10:51:58.845Z,87232
2017-08-10T10:53:01.322Z,111968
2017-08-10T10:54:04.139Z,91456
2017-08-10T10:55:06.604Z,77184
2017-08-10T10:56:09.407Z,73568
2017-08-10T10:57:11.876Z,91328
2017-08-10T10:58:14.671Z,73920
2017-08-10T10:59:17.143Z,45696
2017-08-10T11:00:20.301Z,55168
2017-08-10T11:01:22.771Z,100832
2017-08-10T11:02:25.924Z,130784
2017-08-10T11:03:28.755Z,151808
2017-08-10T11:04:31.223Z,97344
2017-08-10T11:05:34.024Z,60000
2017-08-10T11:06:36.530Z,70848
2017-08-10T11:07:39.370Z,164736
2017-08-10T11:08:42.530Z,141984
2017-08-10T11:09:45.022Z,136160
2017-08-10T11:10:47.821Z,129856
2017-08-10T11:11:50.653Z,135072
2017-08-10T11:12:53.168Z,147776
2017-08-10T11:13:55.681Z,136896
2017-08-10T11:14:58.477Z,58080
2017-08-10T11:16:01.205Z,55424
2017-08-10T11:17:03.690Z,51360
2017-08-10T11:18:06.931Z,103520
2017-08-10T11:19:09.792Z,117536
2017-08-10T11:20:12.263Z,125632
2017-08-10T11:21:14.744Z,132800
2017-08-10T11:22:17.205Z,135584
2017-08-10T11:23:19.670Z,139072
2017-08-10T11:24:22.501Z,140096
2017-08-10T11:25:24.975Z,141024
2017-08-10T11:26:27.484Z,139264
2017-08-10T11:27:30.026Z,139872
2017-08-10T11:28:32.617Z,137952
2017-08-10T11:29:35.090Z,131680
2017-08-10T11:30:37.570Z,71872
2017-08-10T11:31:40.382Z,98912
2017-08-10T11:32:42.861Z,58432
2017-08-10T11:33:45.674Z,138080
2017-08-10T11:34:48.158Z,58912
2017-08-10T11:35:50.657Z,116800
2017-08-10T11:36:53.543Z,78720
2017-08-10T11:37:56.040Z,73888
2017-08-10T11:38:59.568Z,67552
2017-08-10T11:40:02.072Z,64576
2017-08-10T11:41:04.564Z,49152
2017-08-10T11:42:07.423Z,57728
2017-08-10T11:43:09.896Z,65824
2017-08-10T11:44:13.400Z,70752
2017-08-10T11:45:23.120Z,152800
2017-08-10T11:46:31.828Z,153888
2017-08-10T11:47:40.415Z,113888
2017-08-10T11:48:48.639Z,71616
2017-08-10T11:49:56.669Z,101344
2017-08-10T11:51:06.056Z,97824
2017-08-10T11:52:15.286Z,93152
2017-08-10T11:53:24.234Z,72800
2017-08-10T11:54:34.833Z,47488
2017-08-10T11:55:43.176Z,69280
2017-08-10T11:56:52.495Z,123008
2017-08-10T11:58:00.699Z,124384
2017-08-10T11:59:10.188Z,126272
2017-08-10T12:00:20.354Z,115136
2017-08-10T12:01:29.899Z,115616
2017-08-10T12:02:39.146Z,115648
2017-08-10T12:03:48.937Z,121728
2017-08-10T12:04:59.618Z,142080
2017-08-10T12:06:08.259Z,142208
2017-08-10T12:07:18.370Z,130464
2017-08-10T12:08:28.289Z,119136
2017-08-10T12:09:37.211Z,130944
2017-08-10T12:10:46.164Z,145408
2017-08-10T12:11:55.630Z,150784
2017-08-10T12:13:02.366Z,134784
2017-08-10T12:14:10.675Z,117696
2017-08-10T12:15:18.991Z,131232
2017-08-10T12:16:21.810Z,128096
2017-08-10T12:17:30.562Z,122560
2017-08-10T12:18:40.679Z,126336
2017-08-10T12:19:50.804Z,124160
2017-08-10T12:21:03.137Z,123200
2017-08-10T12:22:12.514Z,112640
2017-08-10T12:23:23.132Z,49472
2017-08-10T12:24:25.964Z,117504
2017-08-10T12:25:28.785Z,57248
2017-08-10T12:26:31.258Z,30496
2017-08-10T12:27:33.720Z,31040
2017-08-10T12:28:36.194Z,35008
2017-08-10T12:29:38.665Z,44448
2017-08-10T12:30:41.186Z,38592
2017-08-10T12:31:44.012Z,66688
2017-08-10T12:32:47.139Z,34560
2017-08-10T12:33:49.617Z,32512
2017-08-10T12:34:52.101Z,31456
2017-08-10T12:35:54.573Z,47584
2017-08-10T12:36:57.032Z,106688
2017-08-10T12:37:59.504Z,97248
2017-08-10T12:39:02.356Z,32320
2017-08-10T12:40:04.861Z,30560
2017-08-10T12:41:07.706Z,26496
2017-08-10T12:42:10.168Z,24448
2017-08-10T12:43:13.659Z,23584
2017-08-10T12:44:16.473Z,22208
2017-08-10T12:45:19.278Z,21600
2017-08-10T12:46:22.092Z,21024
2017-08-10T12:47:24.891Z,20064
2017-08-10T12:48:27.369Z,20032
2017-08-10T12:49:30.230Z,21152
2017-08-10T12:50:33.398Z,24128
2017-08-10T12:51:36.230Z,28448
2017-08-10T12:52:38.692Z,32480
2017-08-10T12:53:41.180Z,37952
2017-08-10T12:54:43.662Z,42272
2017-08-10T12:55:46.840Z,50016
2017-08-10T12:56:49.321Z,118624
2017-08-10T12:57:51.794Z,62112
2017-08-10T12:58:55.042Z,76128
2017-08-10T13:00:04.291Z,115904
2017-08-10T13:01:11.828Z,102464
2017-08-10T13:02:15.721Z,65152
2017-08-10T13:03:18.220Z,64640
2017-08-10T13:04:20.705Z,68032
2017-08-10T13:05:23.533Z,79424
2017-08-10T13:06:26.015Z,72416
2017-08-10T13:07:28.476Z,71328
2017-08-10T13:08:30.972Z,83296
2017-08-10T13:09:33.791Z,70944
2017-08-10T13:10:36.277Z,78048
2017-08-10T13:11:38.765Z,104992
2017-08-10T13:12:41.589Z,105536
2017-08-10T13:13:44.740Z,103840
2017-08-10T13:14:47.947Z,99968
2017-08-10T13:15:50.452Z,109056
2017-08-10T13:16:52.947Z,114944
2017-08-10T13:17:55.766Z,110784
2017-08-10T13:18:58.251Z,108224
2017-08-10T13:20:01.072Z,113312
2017-08-10T13:21:04.572Z,112352
2017-08-10T13:22:07.050Z,117216
2017-08-10T13:23:09.551Z,118016
2017-08-10T13:24:13.470Z,122848
2017-08-10T13:25:22.452Z,129184
2017-08-10T13:26:30.957Z,125312
2017-08-10T13:27:39.566Z,121184
2017-08-10T13:28:46.766Z,110560
2017-08-10T13:29:55.911Z,113760
2017-08-10T13:31:04.518Z,123136
2017-08-10T13:32:07.006Z,121664
2017-08-10T13:33:09.826Z,128480
2017-08-10T13:34:13.021Z,134240
2017-08-10T13:35:15.579Z,130368
2017-08-10T13:36:18.078Z,121984
2017-08-10T13:37:20.900Z,117728
2017-08-10T13:38:23.441Z,108672
2017-08-10T13:39:25.956Z,102560
2017-08-10T13:40:29.141Z,113792
2017-08-10T13:41:31.962Z,107328
2017-08-10T13:42:34.452Z,92896
2017-08-10T13:43:37.283Z,90240
2017-08-10T13:44:39.785Z,96832
2017-08-10T13:45:42.327Z,109984
2017-08-10T13:46:45.156Z,111264
2017-08-10T13:47:47.693Z,102848
2017-08-10T13:48:50.201Z,100576
2017-08-10T13:49:52.686Z,95104
2017-08-10T13:50:55.554Z,90624
2017-08-10T13:51:58.798Z,95808
2017-08-10T13:53:01.766Z,105120
2017-08-10T13:54:04.661Z,112480
2017-08-10T13:55:07.159Z,109184
2017-08-10T13:56:09.647Z,98688
2017-08-10T13:57:12.149Z,82592
2017-08-10T13:58:14.643Z,74336
2017-08-10T13:59:17.148Z,85344
2017-08-10T14:00:19.939Z,92736
2017-08-10T14:01:24.998Z,83232
2017-08-10T14:02:33.250Z,88480
2017-08-10T14:03:41.594Z,87296
2017-08-10T14:04:50.102Z,81920
2017-08-10T14:05:58.356Z,72704